createdAt,value
2023-07-02T00:00:08.956Z,8.25
2023-07-02T00:02:37.714Z,7.47
2023-07-02T00:05:05.728Z,7.72
2023-07-02T00:07:34.067Z,6.40
2023-07-02T00:10:01.498Z,7.30
2023-07-02T00:12:28.798Z,5.97
2023-07-02T00:14:56.164Z,6.75
2023-07-02T00:17:23.554Z,7.90
2023-07-02T00:19:53.256Z,7.18
2023-07-02T00:22:21.731Z,7.30
2023-07-02T00:24:51.529Z,8.10
2023-07-02T00:27:19.097Z,6.57
2023-07-02T00:29:46.488Z,7.38
2023-07-02T00:32:13.906Z,7.90
2023-07-02T00:34:41.287Z,7.47
2023-07-02T00:37:08.611Z,8.55
2023-07-02T00:39:35.978Z,7.45
2023-07-02T00:42:04.246Z,6.35
2023-07-02T00:44:31.797Z,6.68
2023-07-02T00:46:59.564Z,6.40
2023-07-02T00:49:27.795Z,6.68
2023-07-02T00:51:56.110Z,7.43
2023-07-02T00:54:23.524Z,7.78
2023-07-02T00:56:51.658Z,6.88
2023-07-02T00:59:19.210Z,6.55
2023-07-02T01:01:51.083Z,7.50
2023-07-02T01:04:19.584Z,6.85
2023-07-02T01:06:47.130Z,6.57
2023-07-02T01:09:14.491Z,6.18
2023-07-02T01:11:46.260Z,8.32
2023-07-02T01:14:23.774Z,7.43
2023-07-02T01:16:52.662Z,5.95
2023-07-02T01:19:41.662Z,6.05
2023-07-02T01:22:10.344Z,6.78
2023-07-02T01:24:39.964Z,8.40
2023-07-02T01:27:07.668Z,6.78
2023-07-02T01:29:37.896Z,6.97
2023-07-02T01:32:06.076Z,6.60
2023-07-02T01:34:33.740Z,7.55
2023-07-02T01:37:01.448Z,7.43
2023-07-02T01:39:28.783Z,7.40
2023-07-02T01:42:09.024Z,6.88
2023-07-02T01:44:36.669Z,8.45
2023-07-02T01:47:04.638Z,7.43
2023-07-02T01:49:32.218Z,6.95
2023-07-02T01:51:59.753Z,7.15
2023-07-02T01:54:28.784Z,8.40
2023-07-02T01:56:57.380Z,6.47
2023-07-02T01:59:25.421Z,7.72
2023-07-02T02:01:53.619Z,6.95
2023-07-02T02:04:20.987Z,8.05
2023-07-02T02:06:48.431Z,7.18
2023-07-02T02:09:15.814Z,7.70
2023-07-02T02:11:46.953Z,7.47
2023-07-02T02:14:14.354Z,9.68
2023-07-02T02:16:41.747Z,7.10
2023-07-02T02:19:09.120Z,9.00
2023-07-02T02:21:36.475Z,9.40
2023-07-02T02:24:03.832Z,7.72
2023-07-02T02:26:31.159Z,8.27
2023-07-02T02:28:58.530Z,7.20
2023-07-02T02:31:25.923Z,7.63
2023-07-02T02:33:53.261Z,8.43
2023-07-02T02:36:20.584Z,9.43
2023-07-02T02:38:48.059Z,8.95
2023-07-02T02:41:15.414Z,7.72
2023-07-02T02:43:45.992Z,8.05
2023-07-02T02:46:14.029Z,9.65
2023-07-02T02:48:41.561Z,8.32
2023-07-02T02:51:08.850Z,7.25
2023-07-02T02:53:36.601Z,7.70
2023-07-02T02:56:04.054Z,8.82
2023-07-02T02:58:31.417Z,8.65
2023-07-02T03:00:59.116Z,9.00
2023-07-02T03:03:26.539Z,8.90
2023-07-02T03:05:53.857Z,10.52
2023-07-02T03:08:21.529Z,9.50
2023-07-02T03:10:49.161Z,9.35
2023-07-02T03:13:16.640Z,9.32
2023-07-02T03:15:44.056Z,8.00
2023-07-02T03:18:11.472Z,7.93
2023-07-02T03:20:38.742Z,8.93
2023-07-02T03:23:06.283Z,9.07
2023-07-02T03:25:33.757Z,11.52
2023-07-02T03:28:01.099Z,8.10
2023-07-02T03:30:28.368Z,7.95
2023-07-02T03:32:55.963Z,8.27
2023-07-02T03:35:23.293Z,9.73
2023-07-02T03:37:50.602Z,7.57
2023-07-02T03:40:17.958Z,7.78
2023-07-02T03:42:45.260Z,8.32
2023-07-02T03:45:12.551Z,8.00
2023-07-02T03:47:39.884Z,7.43
2023-07-02T03:50:07.566Z,8.88
2023-07-02T03:52:34.851Z,7.65
2023-07-02T03:55:02.214Z,7.65
2023-07-02T03:57:29.756Z,8.65
2023-07-02T03:59:57.065Z,7.53
2023-07-02T04:02:24.446Z,6.88
2023-07-02T04:04:51.827Z,8.10
2023-07-02T04:07:19.244Z,7.65
2023-07-02T04:09:46.549Z,10.15
2023-07-02T04:12:13.969Z,7.55
2023-07-02T04:14:41.315Z,8.20
2023-07-02T04:17:08.682Z,7.38
2023-07-02T04:19:36.035Z,7.90
2023-07-02T04:22:04.011Z,7.70
2023-07-02T04:24:31.377Z,7.75
2023-07-02T04:27:16.801Z,8.00
2023-07-02T04:29:48.203Z,6.88
2023-07-02T04:32:15.637Z,7.55
2023-07-02T04:34:43.024Z,6.30
2023-07-02T04:37:11.249Z,8.07
2023-07-02T04:39:38.699Z,7.90
2023-07-02T04:42:06.473Z,8.18
2023-07-02T04:44:33.757Z,7.15
2023-07-02T04:47:03.863Z,8.35
2023-07-02T04:49:31.176Z,6.80
2023-07-02T04:51:58.436Z,6.68
2023-07-02T04:54:25.922Z,6.50
2023-07-02T04:56:53.202Z,7.60
2023-07-02T04:59:22.695Z,7.53
2023-07-02T05:01:50.117Z,6.07
2023-07-02T05:04:17.590Z,7.60
2023-07-02T05:06:45.041Z,7.85
2023-07-02T05:09:12.407Z,6.03
2023-07-02T05:11:39.797Z,6.32
2023-07-02T05:14:07.103Z,6.95
2023-07-02T05:16:34.399Z,8.02
2023-07-02T05:19:01.715Z,6.18
2023-07-02T05:21:29.076Z,7.13
2023-07-02T05:23:56.421Z,6.60
2023-07-02T05:26:23.683Z,6.22
2023-07-02T05:28:51.038Z,7.35
2023-07-02T05:31:18.458Z,7.45
2023-07-02T05:33:45.767Z,6.28
2023-07-02T05:36:13.436Z,7.78
2023-07-02T05:38:40.680Z,6.85
2023-07-02T05:41:07.992Z,6.30
2023-07-02T05:43:35.325Z,6.40
2023-07-02T05:46:02.672Z,7.00
2023-07-02T05:48:30.009Z,6.45
2023-07-02T05:50:57.412Z,7.63
2023-07-02T05:53:24.788Z,6.97
2023-07-02T05:55:52.131Z,6.85
2023-07-02T05:58:19.907Z,6.43
2023-07-02T06:00:50.825Z,6.22
2023-07-02T06:03:21.725Z,7.88
2023-07-02T06:05:52.947Z,7.28
2023-07-02T06:08:20.521Z,6.95
2023-07-02T06:10:49.519Z,8.15
2023-07-02T06:13:17.411Z,7.55
2023-07-02T06:15:45.140Z,8.55
2023-07-02T06:18:12.578Z,8.30
2023-07-02T06:20:39.981Z,10.77
2023-07-02T06:23:07.388Z,12.15
2023-07-02T06:25:34.722Z,9.50
2023-07-02T06:28:02.156Z,11.82
2023-07-02T06:30:29.515Z,12.25
2023-07-02T06:32:57.230Z,9.05
2023-07-02T06:35:24.575Z,9.13
2023-07-02T06:37:51.917Z,10.00
2023-07-02T06:40:19.387Z,9.43
2023-07-02T06:42:46.684Z,10.10
2023-07-02T06:45:14.005Z,10.60
2023-07-02T06:47:41.473Z,18.10
2023-07-02T06:50:09.040Z,9.30
2023-07-02T06:52:37.546Z,10.55
2023-07-02T06:55:05.722Z,9.43
2023-07-02T06:57:33.030Z,11.48
2023-07-02T07:00:01.335Z,13.02
2023-07-02T07:02:29.197Z,10.15
2023-07-02T07:04:56.580Z,10.63
2023-07-02T07:07:23.917Z,9.93
2023-07-02T07:09:51.259Z,9.95
2023-07-02T07:12:18.570Z,11.85
2023-07-02T07:14:46.069Z,11.98
2023-07-02T07:17:13.514Z,9.20
2023-07-02T07:19:40.864Z,9.38
2023-07-02T07:22:08.260Z,9.25
2023-07-02T07:24:35.604Z,8.30
2023-07-02T07:27:02.960Z,8.45
2023-07-02T07:29:30.260Z,9.73
2023-07-02T07:31:57.681Z,7.82
2023-07-02T07:34:25.147Z,10.80
2023-07-02T07:36:52.443Z,10.23
2023-07-02T07:39:19.784Z,9.60
2023-07-02T07:41:50.193Z,9.00
2023-07-02T07:44:17.594Z,9.20
2023-07-02T07:46:44.980Z,10.90
2023-07-02T07:49:12.842Z,10.35
2023-07-02T07:51:40.169Z,8.82
2023-07-02T07:54:07.564Z,9.02
2023-07-02T07:56:34.968Z,9.45
2023-07-02T07:59:02.287Z,8.23
2023-07-02T08:01:29.698Z,9.30
2023-07-02T08:03:57.734Z,9.18
2023-07-02T08:06:25.234Z,8.77
2023-07-02T08:08:52.584Z,9.60
2023-07-02T08:11:19.849Z,10.73
2023-07-02T08:13:47.235Z,10.63
2023-07-02T08:16:14.681Z,10.15
2023-07-02T08:18:42.063Z,10.65
2023-07-02T08:21:09.546Z,9.63
2023-07-02T08:23:36.915Z,11.85
2023-07-02T08:26:04.529Z,12.63
2023-07-02T08:28:31.861Z,11.40
2023-07-02T08:30:59.713Z,11.55
2023-07-02T08:33:27.141Z,10.95
2023-07-02T08:35:54.453Z,10.98
2023-07-02T08:38:21.802Z,13.57
2023-07-02T08:40:51.352Z,12.18
2023-07-02T08:43:19.155Z,11.25
2023-07-02T08:45:47.476Z,12.55
2023-07-02T08:48:15.171Z,12.50
2023-07-02T08:50:44.299Z,11.75
2023-07-02T08:53:11.657Z,11.13
2023-07-02T08:55:38.987Z,10.65
2023-07-02T08:58:06.301Z,9.80
2023-07-02T09:00:37.744Z,11.23
2023-07-02T09:03:16.595Z,10.40
2023-07-02T09:05:53.590Z,10.40
2023-07-02T09:08:30.589Z,10.02
2023-07-02T09:11:18.910Z,10.45
2023-07-02T09:13:51.170Z,10.45
2023-07-02T09:16:31.908Z,9.65
2023-07-02T09:19:08.903Z,10.50
2023-07-02T09:21:47.471Z,9.98
2023-07-02T09:24:23.904Z,10.50
2023-07-02T09:26:52.384Z,12.52
2023-07-02T09:29:25.155Z,10.25
2023-07-02T09:32:08.030Z,10.45
2023-07-02T09:37:06.878Z,11.88
2023-07-02T09:39:36.900Z,10.43
2023-07-02T09:42:07.888Z,11.40
2023-07-02T09:44:36.348Z,11.00
2023-07-02T09:47:04.830Z,11.82
2023-07-02T09:49:46.047Z,10.80
2023-07-02T09:52:14.820Z,10.52
2023-07-02T09:54:43.621Z,12.50
2023-07-02T09:57:11.368Z,11.25
2023-07-02T09:59:40.525Z,11.98
2023-07-02T10:02:09.709Z,9.82
2023-07-02T10:04:44.785Z,10.68
2023-07-02T10:07:13.628Z,13.70
2023-07-02T10:09:46.229Z,13.52
2023-07-02T10:12:24.050Z,12.68
2023-07-02T10:14:54.461Z,14.25
2023-07-02T10:17:40.210Z,14.52
2023-07-02T10:20:09.373Z,13.90
2023-07-02T10:22:54.585Z,13.45
2023-07-02T10:25:36.158Z,12.75
2023-07-02T10:28:15.185Z,13.73
2023-07-02T10:30:42.852Z,14.02
2023-07-02T10:33:13.235Z,15.15
2023-07-02T10:35:43.443Z,14.20
2023-07-02T10:38:20.387Z,15.82
2023-07-02T10:40:48.246Z,16.52
2023-07-02T10:43:25.194Z,17.02
2023-07-02T10:45:53.144Z,15.52
2023-07-02T10:48:20.512Z,18.17
2023-07-02T10:50:48.171Z,17.63
2023-07-02T10:53:19.985Z,16.65
2023-07-02T10:55:56.508Z,16.73
2023-07-02T10:58:25.136Z,16.95
2023-07-02T11:00:53.279Z,17.30
2023-07-02T11:03:26.183Z,15.98
2023-07-02T11:05:55.035Z,16.30
2023-07-02T11:08:24.484Z,17.35
2023-07-02T11:10:52.258Z,17.55
2023-07-02T11:13:21.154Z,17.77
2023-07-02T11:15:49.513Z,19.05
2023-07-02T11:18:19.074Z,19.80
2023-07-02T11:20:48.048Z,20.65
2023-07-02T11:23:25.998Z,21.63
2023-07-02T11:26:11.472Z,21.27
2023-07-02T11:28:51.563Z,21.45
2023-07-02T11:31:27.621Z,22.00
2023-07-02T11:33:55.267Z,23.75
2023-07-02T11:36:27.975Z,24.55
2023-07-02T11:38:57.036Z,24.50
2023-07-02T11:41:24.394Z,24.63
2023-07-02T11:43:51.691Z,25.80
2023-07-02T11:46:19.080Z,25.33
2023-07-02T11:48:46.457Z,24.95
2023-07-02T11:51:13.914Z,25.20
2023-07-02T11:53:41.344Z,23.52
2023-07-02T11:56:08.711Z,24.25
2023-07-02T11:58:36.052Z,23.25
2023-07-02T12:01:03.432Z,23.13
2023-07-02T12:03:31.558Z,23.95
2023-07-02T12:05:58.968Z,23.20
2023-07-02T12:08:26.440Z,23.25
2023-07-02T12:10:55.221Z,23.33
2023-07-02T12:13:22.544Z,21.50
2023-07-02T12:15:52.223Z,22.63
2023-07-02T12:18:19.603Z,22.30
2023-07-02T12:20:46.978Z,21.88
2023-07-02T12:23:14.460Z,23.02
2023-07-02T12:25:41.915Z,22.90
2023-07-02T12:28:11.343Z,23.45
2023-07-02T12:30:40.180Z,20.52
2023-07-02T12:33:07.527Z,19.40
2023-07-02T12:35:34.830Z,18.50
2023-07-02T12:38:04.782Z,21.27
2023-07-02T12:40:32.412Z,19.70
2023-07-02T12:42:59.835Z,21.25
2023-07-02T12:45:27.196Z,20.27
2023-07-02T12:47:54.534Z,18.75
2023-07-02T12:50:21.976Z,18.67
2023-07-02T12:52:49.358Z,18.35
2023-07-02T12:55:16.788Z,18.50
2023-07-02T12:57:44.179Z,17.52
2023-07-02T13:00:12.163Z,17.15
2023-07-02T13:02:50.144Z,15.90
2023-07-02T13:05:26.000Z,16.30
2023-07-02T13:07:53.399Z,15.63
2023-07-02T13:10:20.816Z,14.48
2023-07-02T13:12:48.216Z,15.00
2023-07-02T13:15:15.620Z,15.68
2023-07-02T13:17:44.941Z,13.88
2023-07-02T13:20:12.561Z,15.93
2023-07-02T13:22:39.930Z,14.43
2023-07-02T13:25:08.087Z,15.05
2023-07-02T13:27:35.462Z,14.38
2023-07-02T13:30:03.309Z,13.20
2023-07-02T13:32:32.216Z,12.52
2023-07-02T13:35:00.161Z,14.30
2023-07-02T13:37:27.542Z,12.95
2023-07-02T13:39:54.924Z,12.77
2023-07-02T13:42:22.290Z,12.77
2023-07-02T13:44:49.679Z,11.45
2023-07-02T13:47:17.094Z,11.13
2023-07-02T13:49:45.050Z,11.25
2023-07-02T13:52:12.340Z,13.63
2023-07-02T13:54:39.618Z,12.70
2023-07-02T13:57:07.357Z,11.25
2023-07-02T13:59:34.708Z,11.30
2023-07-02T14:02:02.210Z,10.93
2023-07-02T14:04:29.721Z,11.07
2023-07-02T14:06:57.092Z,12.13
2023-07-02T14:09:24.423Z,13.30
2023-07-02T14:11:51.736Z,12.70
2023-07-02T14:14:19.182Z,11.55
2023-07-02T14:16:46.567Z,14.02
2023-07-02T14:19:14.036Z,13.15
2023-07-02T14:21:41.479Z,15.23
2023-07-02T14:24:08.965Z,12.25
2023-07-02T14:26:36.498Z,13.63
2023-07-02T14:29:03.933Z,13.02
2023-07-02T14:31:31.315Z,13.82
2023-07-02T14:33:58.862Z,12.73
2023-07-02T14:36:26.253Z,12.43
2023-07-02T14:38:53.695Z,12.65
2023-07-02T14:41:21.231Z,12.25
2023-07-02T14:43:48.549Z,11.93
2023-07-02T14:46:16.043Z,13.27
2023-07-02T14:48:43.437Z,12.15
2023-07-02T14:51:10.819Z,13.32
2023-07-02T14:53:38.553Z,12.30
2023-07-02T14:56:05.944Z,11.88
2023-07-02T14:58:33.518Z,14.07
2023-07-02T15:01:01.137Z,12.48
2023-07-02T15:03:30.195Z,11.70
2023-07-02T15:06:08.532Z,14.80
2023-07-02T15:08:35.998Z,10.73
2023-07-02T15:11:03.883Z,11.20
2023-07-02T15:13:31.364Z,11.45
2023-07-02T15:15:58.960Z,12.48
2023-07-02T15:18:28.029Z,11.45
2023-07-02T15:20:55.955Z,10.65
2023-07-02T15:23:24.581Z,11.40
2023-07-02T15:25:53.781Z,10.50
2023-07-02T15:28:22.010Z,10.18
2023-07-02T15:30:57.275Z,10.52
2023-07-02T15:33:25.208Z,9.55
2023-07-02T15:35:53.156Z,10.60
2023-07-02T15:38:21.545Z,10.13
2023-07-02T15:40:50.300Z,10.75
2023-07-02T15:43:17.665Z,11.25
2023-07-02T15:45:45.136Z,11.50
2023-07-02T15:48:12.652Z,11.57
2023-07-02T15:50:40.314Z,10.80
2023-07-02T15:53:07.645Z,11.15
2023-07-02T15:55:36.571Z,11.90
2023-07-02T15:58:04.279Z,13.88
2023-07-02T16:00:32.317Z,12.95
2023-07-02T16:03:01.348Z,12.50
2023-07-02T16:05:29.124Z,14.05
2023-07-02T16:07:56.791Z,12.77
2023-07-02T16:10:24.199Z,13.88
2023-07-02T16:12:53.425Z,13.45
2023-07-02T16:15:21.197Z,14.65
2023-07-02T16:17:49.615Z,14.35
2023-07-02T16:20:17.103Z,14.82
2023-07-02T16:22:44.574Z,15.35
2023-07-02T16:25:12.585Z,16.38
2023-07-02T16:27:39.957Z,16.98
2023-07-02T16:30:07.962Z,16.73
2023-07-02T16:32:35.352Z,18.23
2023-07-02T16:35:02.773Z,18.67
2023-07-02T16:37:30.201Z,19.05
2023-07-02T16:39:57.547Z,18.83
2023-07-02T16:42:24.915Z,18.48
2023-07-02T16:44:52.333Z,17.73
2023-07-02T16:47:19.768Z,18.60
2023-07-02T16:49:47.676Z,17.08
2023-07-02T16:52:16.040Z,18.58
2023-07-02T16:54:44.198Z,19.17
2023-07-02T16:57:11.575Z,17.92
2023-07-02T16:59:39.208Z,17.75
2023-07-02T17:02:08.966Z,16.13
2023-07-02T17:04:36.370Z,17.60
2023-07-02T17:07:03.909Z,18.20
2023-07-02T17:09:41.384Z,16.35
2023-07-02T17:12:15.072Z,16.70
2023-07-02T17:14:44.807Z,17.55
2023-07-02T17:17:22.199Z,18.48
2023-07-02T17:19:51.782Z,16.25
2023-07-02T17:22:27.634Z,16.48
2023-07-02T17:24:57.781Z,17.73
2023-07-02T17:27:30.771Z,17.27
2023-07-02T17:30:01.321Z,17.23
2023-07-02T17:32:30.039Z,19.50
2023-07-02T17:34:58.468Z,15.80
2023-07-02T17:37:26.252Z,19.20
2023-07-02T17:39:54.286Z,17.63
2023-07-02T17:42:21.687Z,18.88
2023-07-02T17:44:49.512Z,17.75
2023-07-02T17:47:18.824Z,18.35
2023-07-02T17:49:48.391Z,18.00
2023-07-02T17:52:20.640Z,18.60
2023-07-02T17:54:51.355Z,20.33
2023-07-02T17:57:19.998Z,21.15
2023-07-02T17:59:48.577Z,19.85
2023-07-02T18:02:17.910Z,21.30
2023-07-02T18:04:46.583Z,21.52
2023-07-02T18:07:19.706Z,21.17
2023-07-02T18:09:52.565Z,22.88
2023-07-02T18:12:26.839Z,19.42
2023-07-02T18:17:24.830Z,20.48
2023-07-02T18:19:54.199Z,20.02
2023-07-02T18:22:22.027Z,19.95
2023-07-02T18:24:49.390Z,22.45
2023-07-02T18:27:17.729Z,21.42
2023-07-02T18:29:48.740Z,21.42
2023-07-02T18:32:16.172Z,19.88
2023-07-02T18:34:44.292Z,19.92
2023-07-02T18:37:11.645Z,18.05
2023-07-02T18:39:39.528Z,19.67
2023-07-02T18:42:09.664Z,16.90
2023-07-02T18:44:37.235Z,17.17
2023-07-02T18:47:10.803Z,15.13
2023-07-02T18:49:39.587Z,15.85
2023-07-02T18:52:10.545Z,13.65
2023-07-02T18:54:38.357Z,11.88
2023-07-02T18:57:07.895Z,13.80
2023-07-02T18:59:35.944Z,13.07
2023-07-02T19:02:05.558Z,11.43
2023-07-02T19:04:36.723Z,12.40
2023-07-02T19:07:07.116Z,13.32
2023-07-02T19:09:37.268Z,11.80
2023-07-02T19:12:08.087Z,12.40
2023-07-02T19:14:37.126Z,14.85
2023-07-02T19:17:09.450Z,12.75
2023-07-02T19:19:42.406Z,13.38
2023-07-02T19:22:14.844Z,12.23
2023-07-02T19:24:42.630Z,13.75
2023-07-02T19:27:12.207Z,12.18
2023-07-02T19:29:39.533Z,13.35
2023-07-02T19:32:07.628Z,13.82
2023-07-02T19:34:35.532Z,13.40
2023-07-02T19:37:03.064Z,13.07
2023-07-02T19:39:31.554Z,12.73
2023-07-02T19:41:59.087Z,12.88
2023-07-02T19:44:26.428Z,12.73
2023-07-02T19:46:53.779Z,10.50
2023-07-02T19:49:21.392Z,11.85
2023-07-02T19:51:51.116Z,12.70
2023-07-02T19:54:20.178Z,13.75
2023-07-02T19:56:49.648Z,13.15
2023-07-02T19:59:18.005Z,14.43
2023-07-02T20:01:45.594Z,15.15
2023-07-02T20:04:24.468Z,14.55
2023-07-02T20:06:52.151Z,13.05
2023-07-02T20:09:19.869Z,13.35
2023-07-02T20:11:47.319Z,13.15
2023-07-02T20:14:17.033Z,13.32
2023-07-02T20:16:44.903Z,12.60
2023-07-02T20:19:12.427Z,15.30
2023-07-02T20:21:41.572Z,13.15
2023-07-02T20:24:08.891Z,12.85
2023-07-02T20:26:36.199Z,14.07
2023-07-02T20:29:03.727Z,10.80
2023-07-02T20:31:31.457Z,12.77
2023-07-02T20:34:02.285Z,12.57
2023-07-02T20:36:31.551Z,14.52
2023-07-02T20:39:00.345Z,12.57
2023-07-02T20:41:29.054Z,14.10
2023-07-02T20:44:01.408Z,14.05
2023-07-02T20:46:32.585Z,12.85
2023-07-02T20:49:00.335Z,10.18
2023-07-02T20:51:28.523Z,13.90
2023-07-02T20:53:56.000Z,16.50
2023-07-02T20:56:23.489Z,15.30
2023-07-02T20:58:52.006Z,14.13
2023-07-02T21:01:19.391Z,15.52
2023-07-02T21:03:46.902Z,15.88
2023-07-02T21:06:14.361Z,15.77
2023-07-02T21:08:41.754Z,16.38
2023-07-02T21:11:23.834Z,12.88
2023-07-02T21:13:56.897Z,15.38
2023-07-02T21:16:24.902Z,16.20
2023-07-02T21:18:52.454Z,13.75
2023-07-02T21:21:19.903Z,14.77
2023-07-02T21:23:47.322Z,13.65
2023-07-02T21:26:14.903Z,15.35
2023-07-02T21:28:42.669Z,14.45
2023-07-02T21:31:14.074Z,15.10
2023-07-02T21:33:41.980Z,13.55
2023-07-02T21:36:10.748Z,14.60
2023-07-02T21:38:39.607Z,14.10
2023-07-02T21:41:08.398Z,13.68
2023-07-02T21:43:36.062Z,12.77
2023-07-02T21:46:06.044Z,17.73
2023-07-02T21:48:34.307Z,14.23
2023-07-02T21:51:01.692Z,13.57
2023-07-02T21:53:29.203Z,12.02
2023-07-02T21:55:57.216Z,12.38
2023-07-02T21:58:24.759Z,12.88
2023-07-02T22:00:52.168Z,12.98
2023-07-02T22:03:19.525Z,14.50
2023-07-02T22:05:53.716Z,12.07
2023-07-02T22:08:21.805Z,13.10
2023-07-02T22:10:50.241Z,13.68
2023-07-02T22:13:18.770Z,11.77
2023-07-02T22:15:46.680Z,14.27
2023-07-02T22:18:14.226Z,13.88
2023-07-02T22:20:42.880Z,14.93
2023-07-02T22:23:11.501Z,12.40
2023-07-02T22:25:43.450Z,10.32
2023-07-02T22:28:11.451Z,15.25
2023-07-02T22:30:39.041Z,12.02
2023-07-02T22:33:06.414Z,12.63
2023-07-02T22:35:34.437Z,12.02
2023-07-02T22:38:01.878Z,13.43
2023-07-02T22:40:30.854Z,10.82
2023-07-02T22:42:58.385Z,11.10
2023-07-02T22:45:25.989Z,11.75
2023-07-02T22:47:53.373Z,12.27
2023-07-02T22:50:21.633Z,11.82
2023-07-02T22:52:51.189Z,12.82
2023-07-02T22:55:18.676Z,12.18
2023-07-02T22:57:46.080Z,9.75
2023-07-02T23:00:17.014Z,12.55
2023-07-02T23:02:46.347Z,12.05
2023-07-02T23:05:18.902Z,12.20
2023-07-02T23:07:47.425Z,11.90
2023-07-02T23:10:17.277Z,10.18
2023-07-02T23:12:47.994Z,9.77
2023-07-02T23:15:18.397Z,11.45
2023-07-02T23:17:48.372Z,10.70
2023-07-02T23:20:16.784Z,11.57
2023-07-02T23:22:44.722Z,10.02
2023-07-02T23:25:14.421Z,12.35
2023-07-02T23:27:43.234Z,9.93
2023-07-02T23:30:15.139Z,12.38
2023-07-02T23:32:42.946Z,10.10
2023-07-02T23:35:11.610Z,8.98
2023-07-02T23:37:42.878Z,9.40
2023-07-02T23:40:15.554Z,12.20
2023-07-02T23:42:43.185Z,10.57
2023-07-02T23:45:11.762Z,10.52
2023-07-02T23:47:39.272Z,10.85
2023-07-02T23:50:08.896Z,10.20
2023-07-02T23:52:39.219Z,9.98
2023-07-02T23:55:11.630Z,11.93
2023-07-02T23:57:39.290Z,10.38
